Time;durP1;ratioP1;P1;durP2;ratioP2;P2;SDS_P1;SDS_P2;PMS_P1;PMS_P2;Temp;Humidity;BMP_temperature;BMP_pressure;BME280_temperature;BME280_humidity;BME280_pressure;Samples;Min_cycle;Max_cycle;Signal;HPM_P1;HPM_P2
2022/10/02 00:01:18;;;;;;;9.03;4.10;;;;;;;;;;5032798;28;20542;-44
2022/10/02 00:03:45;;;;;;;9.90;3.57;;;;;;;;;;5032735;28;20420;-44
2022/10/02 00:06:15;;;;;;;18.67;4.93;;;;;;;;;;5033317;28;20498;-44
2022/10/02 00:08:42;;;;;;;13.13;4.47;;;;;;;;;;5033280;28;20416;-44
2022/10/02 00:11:08;;;;;;;23.53;4.57;;;;;;;;;;5032697;28;20403;-44
2022/10/02 00:13:37;;;;;;;14.13;3.90;;;;;;;;;;5032542;28;20398;-44
2022/10/02 00:16:05;;;;;;;8.50;2.87;;;;;;;;;;5033075;28;20404;-44
2022/10/02 00:18:32;;;;;;;17.37;3.03;;;;;;;;;;5033032;28;20417;-45
2022/10/02 00:21:14;;;;;;;8.97;3.90;;;;;;;;;;5032631;28;20496;-44
2022/10/02 00:23:45;;;;;;;15.17;3.70;;;;;;;;;;5032427;28;20434;-45
2022/10/02 00:26:11;;;;;;;22.70;3.93;;;;;;;;;;5032740;28;20847;-45
2022/10/02 00:28:37;;;;;;;14.33;3.70;;;;;;;;;;5032884;28;20434;-44
2022/10/02 00:31:13;;;;;;;12.37;4.07;;;;;;;;;;5032408;28;20486;-44
2022/10/02 00:34:02;;;;;;;15.77;4.60;;;;;;;;;;5032251;28;20824;-44
2022/10/02 00:36:36;;;;;;;9.60;3.53;;;;;;;;;;5032849;28;20399;-44
2022/10/02 00:39:18;;;;;;;17.40;4.33;;;;;;;;;;5032551;28;20495;-44
2022/10/02 00:41:47;;;;;;;19.70;4.30;;;;;;;;;;5032338;28;20451;-44
2022/10/02 00:44:22;;;;;;;17.57;4.70;;;;;;;;;;5032037;28;20405;-44
2022/10/02 00:46:53;;;;;;;24.83;4.73;;;;;;;;;;5032535;28;20815;-44
2022/10/02 00:49:38;;;;;;;14.77;3.60;;;;;;;;;;5032389;28;20409;-44
2022/10/02 00:52:33;;;;;;;17.83;4.60;;;;;;;;;;5032200;28;20494;-44
2022/10/02 00:55:09;;;;;;;23.07;3.90;;;;;;;;;;5012615;28;20407;-44
2022/10/02 00:57:54;;;;;;;15.67;3.63;;;;;;;;;;5032091;28;20505;-45
2022/10/02 01:00:21;;;;;;;20.27;4.83;;;;;;;;;;5032555;28;20485;-44
2022/10/02 01:02:57;;;;;;;16.83;3.93;;;;;;;;;;5029763;28;20438;-44
2022/10/02 01:05:24;;;;;;;12.63;3.80;;;;;;;;;;5031253;28;20923;-44
2022/10/02 01:07:52;;;;;;;32.93;5.87;;;;;;;;;;5030627;28;20426;-45
2022/10/02 01:10:21;;;;;;;16.53;4.20;;;;;;;;;;5031907;28;20458;-44
2022/10/02 01:12:47;;;;;;;15.27;3.80;;;;;;;;;;5032171;28;20521;-45
2022/10/02 01:15:14;;;;;;;13.77;3.77;;;;;;;;;;5032238;28;20400;-45
2022/10/02 01:17:41;;;;;;;19.27;4.60;;;;;;;;;;5032067;28;20450;-45
2022/10/02 01:20:12;;;;;;;12.93;3.83;;;;;;;;;;5032085;28;20417;-44
2022/10/02 01:22:47;;;;;;;18.20;4.47;;;;;;;;;;5031850;28;20420;-44
2022/10/02 01:25:13;;;;;;;14.00;3.33;;;;;;;;;;5031587;28;20407;-44
2022/10/02 01:27:39;;;;;;;26.33;4.90;;;;;;;;;;5032037;28;20436;-44
2022/10/02 01:30:08;;;;;;;12.23;3.23;;;;;;;;;;5031886;28;20403;-44
2022/10/02 01:32:37;;;;;;;20.30;4.13;;;;;;;;;;5031728;28;20830;-45
2022/10/02 01:35:04;;;;;;;15.70;4.27;;;;;;;;;;5031457;28;20429;-45
2022/10/02 01:37:31;;;;;;;18.90;4.20;;;;;;;;;;5032035;28;20428;-44
2022/10/02 01:39:59;;;;;;;22.17;3.97;;;;;;;;;;5031748;28;20749;-44
2022/10/02 01:42:25;;;;;;;19.47;4.40;;;;;;;;;;5031707;28;20900;-44
2022/10/02 01:44:51;;;;;;;21.23;7.17;;;;;;;;;;5031358;28;20827;-45
2022/10/02 01:47:24;;;;;;;18.27;4.63;;;;;;;;;;5031627;28;20448;-45
2022/10/02 01:50:05;;;;;;;12.17;3.70;;;;;;;;;;5031717;28;20939;-45
2022/10/02 01:52:37;;;;;;;19.00;6.17;;;;;;;;;;5031454;28;20901;-44
2022/10/02 01:55:25;;;;;;;16.77;4.50;;;;;;;;;;5031279;28;20404;-44
2022/10/02 01:57:54;;;;;;;22.23;4.67;;;;;;;;;;5031515;28;20419;-45
2022/10/02 02:00:23;;;;;;;15.87;3.67;;;;;;;;;;5031677;28;20438;-44
2022/10/02 02:02:49;;;;;;;13.93;4.53;;;;;;;;;;5031412;28;20524;-45
2022/10/02 02:05:24;;;;;;;27.60;5.00;;;;;;;;;;5031260;28;20491;-44
2022/10/02 02:07:57;;;;;;;21.33;5.23;;;;;;;;;;5030661;28;20424;-45
2022/10/02 02:10:35;;;;;;;25.60;3.87;;;;;;;;;;5031537;28;20397;-45
2022/10/02 02:13:03;;;;;;;22.93;4.93;;;;;;;;;;5031343;28;20458;-45
2022/10/02 02:15:40;;;;;;;21.67;4.53;;;;;;;;;;5031162;28;20434;-44
2022/10/02 02:18:09;;;;;;;15.00;4.10;;;;;;;;;;5031360;28;20424;-44
2022/10/02 02:20:43;;;;;;;16.73;4.53;;;;;;;;;;5031865;28;20395;-44
2022/10/02 02:23:13;;;;;;;20.87;4.83;;;;;;;;;;5035156;28;20400;-44
2022/10/02 02:25:42;;;;;;;14.50;4.23;;;;;;;;;;5034917;28;20403;-45
2022/10/02 02:28:11;;;;;;;19.83;4.80;;;;;;;;;;5035170;28;20421;-45
2022/10/02 02:30:38;;;;;;;20.60;4.40;;;;;;;;;;5035214;28;20424;-44
2022/10/02 02:33:06;;;;;;;22.57;6.70;;;;;;;;;;5034969;28;20550;-44
2022/10/02 02:35:35;;;;;;;14.70;5.53;;;;;;;;;;5034717;28;20399;-44
2022/10/02 02:38:04;;;;;;;17.07;5.73;;;;;;;;;;5034930;28;20486;-45
2022/10/02 02:40:32;;;;;;;20.83;4.60;;;;;;;;;;5035130;28;20656;-44
2022/10/02 02:43:06;;;;;;;22.87;5.43;;;;;;;;;;5034884;28;20416;-44
2022/10/02 02:45:36;;;;;;;17.60;4.10;;;;;;;;;;5034495;28;20430;-45
2022/10/02 02:48:05;;;;;;;28.20;6.90;;;;;;;;;;5034747;28;20444;-45
2022/10/02 02:50:31;;;;;;;22.33;5.03;;;;;;;;;;5035015;28;20423;-45
2022/10/02 02:52:57;;;;;;;17.20;4.47;;;;;;;;;;5034515;28;20455;-44
2022/10/02 02:55:26;;;;;;;20.63;5.80;;;;;;;;;;5034313;28;20402;-45
2022/10/02 02:57:57;;;;;;;22.00;4.93;;;;;;;;;;5034208;28;20414;-45
2022/10/02 03:00:24;;;;;;;21.60;5.37;;;;;;;;;;5034611;28;20411;-45
2022/10/02 03:02:53;;;;;;;23.23;6.40;;;;;;;;;;5034345;28;20569;-44
2022/10/02 03:05:20;;;;;;;21.87;5.17;;;;;;;;;;5034153;28;20413;-45
2022/10/02 03:08:00;;;;;;;20.53;5.67;;;;;;;;;;5034290;28;20436;-45
2022/10/02 03:10:37;;;;;;;34.93;8.97;;;;;;;;;;5034770;28;20399;-44
2022/10/02 03:13:21;;;;;;;31.50;5.90;;;;;;;;;;5034204;28;21008;-44
2022/10/02 03:15:53;;;;;;;21.73;6.13;;;;;;;;;;5033961;28;20401;-45
2022/10/02 03:18:38;;;;;;;39.23;6.67;;;;;;;;;;5034173;28;20414;-44
2022/10/02 03:21:19;;;;;;;33.50;5.90;;;;;;;;;;5034253;28;20511;-45
2022/10/02 03:23:45;;;;;;;26.23;5.40;;;;;;;;;;5033629;28;20397;-44
2022/10/02 03:26:12;;;;;;;24.77;5.67;;;;;;;;;;5034576;28;20420;-45
2022/10/02 03:28:42;;;;;;;21.17;5.70;;;;;;;;;;5033998;28;20445;-45
2022/10/02 03:31:09;;;;;;;19.50;5.03;;;;;;;;;;5034055;28;20395;-45
2022/10/02 03:33:36;;;;;;;17.83;6.57;;;;;;;;;;5032294;28;20393;-45
2022/10/02 03:36:02;;;;;;;17.27;6.10;;;;;;;;;;5034132;28;20404;-45
2022/10/02 03:38:32;;;;;;;29.43;6.67;;;;;;;;;;5033805;28;20452;-46
2022/10/02 03:40:58;;;;;;;19.70;5.13;;;;;;;;;;5033857;28;20754;-45
2022/10/02 03:43:25;;;;;;;23.33;5.40;;;;;;;;;;5033577;28;20406;-45
2022/10/02 03:45:51;;;;;;;22.07;7.13;;;;;;;;;;5033423;28;20414;-45
2022/10/02 03:48:16;;;;;;;21.00;5.10;;;;;;;;;;5033594;28;20517;-44
2022/10/02 03:50:43;;;;;;;16.63;5.30;;;;;;;;;;5033819;28;20462;-45
2022/10/02 03:53:16;;;;;;;28.50;5.80;;;;;;;;;;5033433;28;20892;-45
2022/10/02 03:55:44;;;;;;;22.13;6.27;;;;;;;;;;5033115;28;20407;-44
2022/10/02 03:58:17;;;;;;;28.97;6.20;;;;;;;;;;5033522;28;20835;-45
2022/10/02 04:00:50;;;;;;;26.47;5.20;;;;;;;;;;5033582;28;20413;-45
2022/10/02 04:03:36;;;;;;;29.97;6.37;;;;;;;;;;5033308;28;20420;-45
2022/10/02 04:06:12;;;;;;;26.53;7.37;;;;;;;;;;5033437;28;20758;-44
2022/10/02 04:08:42;;;;;;;27.63;5.47;;;;;;;;;;5033325;28;20424;-44
2022/10/02 04:11:13;;;;;;;26.57;7.07;;;;;;;;;;5033434;28;20428;-45
2022/10/02 04:13:40;;;;;;;31.87;7.90;;;;;;;;;;5032887;28;20781;-45
2022/10/02 04:16:29;;;;;;;28.03;5.93;;;;;;;;;;5033271;28;20416;-44
2022/10/02 04:19:25;;;;;;;22.37;6.03;;;;;;;;;;5030082;28;20445;-44
2022/10/02 04:21:54;;;;;;;24.37;5.97;;;;;;;;;;5028300;28;20827;-45
2022/10/02 04:24:33;;;;;;;25.47;5.00;;;;;;;;;;5032476;28;20949;-44
2022/10/02 04:27:13;;;;;;;38.40;7.33;;;;;;;;;;5032883;28;20437;-44
2022/10/02 04:29:43;;;;;;;29.87;5.87;;;;;;;;;;5033062;28;20470;-45
2022/10/02 04:32:14;;;;;;;13.80;4.73;;;;;;;;;;5032889;28;20453;-45
2022/10/02 04:34:41;;;;;;;27.87;5.67;;;;;;;;;;5032267;28;20412;-45
2022/10/02 04:37:14;;;;;;;12.83;4.30;;;;;;;;;;5032752;28;20928;-45
2022/10/02 04:39:40;;;;;;;26.13;5.40;;;;;;;;;;5032698;28;20412;-45
2022/10/02 04:42:20;;;;;;;17.30;4.33;;;;;;;;;;5032798;28;20920;-46
2022/10/02 04:44:49;;;;;;;17.70;4.87;;;;;;;;;;5031906;28;20402;-45
2022/10/02 04:47:27;;;;;;;23.77;4.80;;;;;;;;;;5032650;28;20443;-45
2022/10/02 04:49:59;;;;;;;13.23;4.33;;;;;;;;;;5032433;28;20902;-45
2022/10/02 04:52:37;;;;;;;13.27;3.90;;;;;;;;;;5032283;28;20461;-45
2022/10/02 04:55:22;;;;;;;11.23;3.70;;;;;;;;;;5032169;28;20914;-44
2022/10/02 04:57:55;;;;;;;17.73;3.83;;;;;;;;;;5032383;28;20475;-44
2022/10/02 05:00:22;;;;;;;15.10;4.10;;;;;;;;;;5032482;28;20458;-45
2022/10/02 05:03:05;;;;;;;18.63;4.77;;;;;;;;;;5032258;28;20425;-45
2022/10/02 05:05:40;;;;;;;17.50;3.93;;;;;;;;;;5031980;28;20392;-44
2022/10/02 05:08:21;;;;;;;19.67;3.87;;;;;;;;;;5031210;28;20488;-45
2022/10/02 05:10:47;;;;;;;11.67;3.63;;;;;;;;;;5032313;28;20919;-45
2022/10/02 05:13:28;;;;;;;8.90;2.80;;;;;;;;;;5031979;28;20449;-44
2022/10/02 05:16:06;;;;;;;7.40;3.47;;;;;;;;;;5031776;28;20458;-45
2022/10/02 05:18:38;;;;;;;12.53;3.20;;;;;;;;;;5032444;28;20495;-44
2022/10/02 05:21:12;;;;;;;16.50;4.53;;;;;;;;;;5032041;28;20408;-44
2022/10/02 05:23:47;;;;;;;12.23;3.17;;;;;;;;;;5031600;28;20409;-44
2022/10/02 05:26:25;;;;;;;7.77;2.73;;;;;;;;;;5032081;28;20460;-44
2022/10/02 05:29:10;;;;;;;15.83;3.87;;;;;;;;;;5031795;28;20498;-44
2022/10/02 05:31:53;;;;;;;9.80;2.80;;;;;;;;;;5031897;28;20974;-44
2022/10/02 05:34:30;;;;;;;10.47;3.37;;;;;;;;;;5031366;28;20398;-44
2022/10/02 05:37:08;;;;;;;12.00;3.23;;;;;;;;;;5031825;28;20886;-45
2022/10/02 05:39:36;;;;;;;8.47;2.80;;;;;;;;;;5031775;28;20408;-44
2022/10/02 05:42:11;;;;;;;14.53;3.33;;;;;;;;;;5031934;28;20440;-45
2022/10/02 05:44:44;;;;;;;9.23;3.10;;;;;;;;;;5031490;28;20469;-45
2022/10/02 05:47:12;;;;;;;7.97;3.17;;;;;;;;;;5031786;28;20420;-45
2022/10/02 05:49:43;;;;;;;9.43;3.33;;;;;;;;;;5031592;28;20416;-45
2022/10/02 05:52:17;;;;;;;14.70;3.50;;;;;;;;;;5031754;28;20479;-44
2022/10/02 05:54:52;;;;;;;5.63;2.40;;;;;;;;;;5031189;28;20763;-44
2022/10/02 05:57:30;;;;;;;4.37;3.23;;;;;;;;;;5034047;28;20424;-44
2022/10/02 06:00:01;;;;;;;13.60;2.80;;;;;;;;;;5051256;28;20411;-44
2022/10/02 06:02:36;;;;;;;5.40;2.40;;;;;;;;;;5055444;28;20431;-44
2022/10/02 06:05:05;;;;;;;7.23;2.60;;;;;;;;;;5055002;28;20435;-44
2022/10/02 06:07:31;;;;;;;11.20;2.97;;;;;;;;;;5055541;28;20425;-45
2022/10/02 06:10:06;;;;;;;14.83;2.77;;;;;;;;;;5055102;28;20410;-44
2022/10/02 06:12:39;;;;;;;7.60;2.90;;;;;;;;;;5055224;28;20870;-44
2022/10/02 06:15:06;;;;;;;3.77;2.50;;;;;;;;;;5052797;28;20400;-45
2022/10/02 06:17:41;;;;;;;4.60;2.57;;;;;;;;;;5047693;28;20568;-44
2022/10/02 06:20:16;;;;;;;8.30;2.47;;;;;;;;;;5055007;28;20403;-44
2022/10/02 06:22:51;;;;;;;11.57;3.67;;;;;;;;;;5044349;28;20431;-44
2022/10/02 06:25:27;;;;;;;6.87;2.53;;;;;;;;;;5041584;28;20420;-44
2022/10/02 06:27:56;;;;;;;7.80;2.90;;;;;;;;;;5052744;28;20441;-44
2022/10/02 06:30:22;;;;;;;9.93;2.90;;;;;;;;;;5034700;28;20956;-44
2022/10/02 06:32:54;;;;;;;7.23;2.50;;;;;;;;;;5034819;28;20438;-45
2022/10/02 06:35:30;;;;;;;6.60;2.97;;;;;;;;;;5043114;28;20417;-44
2022/10/02 06:38:00;;;;;;;6.33;2.87;;;;;;;;;;5034972;28;20915;-44
2022/10/02 06:40:32;;;;;;;4.60;2.37;;;;;;;;;;5035792;28;20413;-45
2022/10/02 06:42:58;;;;;;;10.73;2.97;;;;;;;;;;5052715;28;20777;-45
2022/10/02 06:45:31;;;;;;;7.90;2.90;;;;;;;;;;5054442;28;20415;-44
2022/10/02 06:48:15;;;;;;;8.43;2.90;;;;;;;;;;5054674;28;20416;-44
2022/10/02 06:50:43;;;;;;;8.13;3.37;;;;;;;;;;5054178;28;20458;-44
2022/10/02 06:53:33;;;;;;;6.60;3.10;;;;;;;;;;5054625;28;20951;-44
2022/10/02 06:56:05;;;;;;;10.17;3.90;;;;;;;;;;5054261;28;20405;-44
2022/10/02 06:58:49;;;;;;;6.67;3.67;;;;;;;;;;5054498;28;20451;-44
2022/10/02 07:01:24;;;;;;;5.37;3.70;;;;;;;;;;5054427;28;20404;-45
2022/10/02 07:03:57;;;;;;;10.60;4.63;;;;;;;;;;5053923;28;20455;-44
2022/10/02 07:06:26;;;;;;;7.33;3.73;;;;;;;;;;5054126;28;20420;-44
2022/10/02 07:09:03;;;;;;;11.90;5.47;;;;;;;;;;5053936;28;20901;-44
2022/10/02 07:11:49;;;;;;;10.27;4.93;;;;;;;;;;5053712;28;20484;-44
2022/10/02 07:14:15;;;;;;;8.70;4.97;;;;;;;;;;5053492;28;20396;-45
2022/10/02 07:16:47;;;;;;;11.67;6.30;;;;;;;;;;5054540;28;20409;-44
2022/10/02 07:19:19;;;;;;;6.30;5.13;;;;;;;;;;5053755;28;20374;-45
2022/10/02 07:22:02;;;;;;;11.23;5.67;;;;;;;;;;5053577;28;20439;-43
2022/10/02 07:24:47;;;;;;;18.70;5.80;;;;;;;;;;5053235;28;20778;-43
2022/10/02 07:27:21;;;;;;;14.50;5.70;;;;;;;;;;5053665;28;20392;-43
2022/10/02 07:30:08;;;;;;;16.80;6.77;;;;;;;;;;5053498;28;20419;-42
2022/10/02 07:32:55;;;;;;;20.57;7.37;;;;;;;;;;5053371;28;20472;-42
2022/10/02 07:35:43;;;;;;;22.13;7.77;;;;;;;;;;5053130;28;20408;-43
2022/10/02 07:38:43;;;;;;;12.50;7.57;;;;;;;;;;5053591;28;20425;-42
2022/10/02 07:41:19;;;;;;;11.70;7.20;;;;;;;;;;5053331;28;20393;-43
2022/10/02 07:44:20;;;;;;;10.20;6.70;;;;;;;;;;5052940;28;20893;-44
2022/10/02 07:47:08;;;;;;;12.33;6.40;;;;;;;;;;5051489;28;20451;-42
2022/10/02 07:49:52;;;;;;;13.70;6.40;;;;;;;;;;5053244;28;20394;-42
2022/10/02 07:52:24;;;;;;;20.50;6.00;;;;;;;;;;5053792;28;20587;-42
2022/10/02 07:54:57;;;;;;;10.73;5.30;;;;;;;;;;5052925;28;20821;-43
2022/10/02 07:57:30;;;;;;;12.07;5.00;;;;;;;;;;5053017;28;20409;-43
2022/10/02 08:00:05;;;;;;;18.87;5.03;;;;;;;;;;5053310;28;20405;-42
2022/10/02 08:02:36;;;;;;;19.77;5.73;;;;;;;;;;5052928;28;20417;-42
2022/10/02 08:05:05;;;;;;;18.27;5.63;;;;;;;;;;5052988;28;20484;-43
2022/10/02 08:07:31;;;;;;;10.07;6.00;;;;;;;;;;5053127;28;20421;-43
2022/10/02 08:10:01;;;;;;;20.40;5.10;;;;;;;;;;5053014;28;20868;-43
2022/10/02 08:12:31;;;;;;;15.17;5.20;;;;;;;;;;5047108;28;20454;-49
2022/10/02 08:15:28;;;;;;;14.23;6.10;;;;;;;;;;5031668;28;20426;-46
2022/10/02 08:17:57;;;;;;;13.10;7.40;;;;;;;;;;5032841;28;20755;-43
2022/10/02 08:20:49;;;;;;;15.43;5.80;;;;;;;;;;5032567;28;20379;-42
2022/10/02 08:23:21;;;;;;;10.87;5.57;;;;;;;;;;5032493;28;20414;-42
2022/10/02 08:25:53;;;;;;;11.67;5.50;;;;;;;;;;5032596;28;20474;-43
2022/10/02 08:28:24;;;;;;;16.83;5.50;;;;;;;;;;5032832;28;20455;-42
2022/10/02 08:30:50;;;;;;;8.80;5.30;;;;;;;;;;5032727;28;20484;-42
2022/10/02 08:33:20;;;;;;;20.13;7.27;;;;;;;;;;5032442;28;20449;-44
2022/10/02 08:36:03;;;;;;;14.63;6.40;;;;;;;;;;5032433;28;20408;-44
2022/10/02 08:38:34;;;;;;;12.50;6.07;;;;;;;;;;5032594;28;20414;-42
2022/10/02 08:41:03;;;;;;;12.47;7.33;;;;;;;;;;5032586;28;20370;-42
2022/10/02 08:43:45;;;;;;;14.53;6.93;;;;;;;;;;5032543;28;20417;-42
2022/10/02 08:46:22;;;;;;;14.50;7.20;;;;;;;;;;5032533;28;20415;-42
2022/10/02 08:48:54;;;;;;;9.40;6.20;;;;;;;;;;5032283;28;20905;-45
2022/10/02 08:51:39;;;;;;;18.27;6.87;;;;;;;;;;5032495;28;20437;-42
2022/10/02 08:54:20;;;;;;;16.60;6.83;;;;;;;;;;5031658;28;20410;-42
2022/10/02 08:57:04;;;;;;;8.03;6.00;;;;;;;;;;5045483;28;20426;-44
2022/10/02 08:59:51;;;;;;;14.03;7.73;;;;;;;;;;5052592;28;20699;-43
2022/10/02 09:02:36;;;;;;;16.80;6.73;;;;;;;;;;5052063;28;20419;-42
2022/10/02 09:05:24;;;;;;;14.70;8.03;;;;;;;;;;5051419;28;20419;-42
2022/10/02 09:07:56;;;;;;;18.27;7.43;;;;;;;;;;5051988;28;20430;-46
2022/10/02 09:10:29;;;;;;;14.43;6.93;;;;;;;;;;5051934;28;20375;-42
2022/10/02 09:12:57;;;;;;;13.00;7.70;;;;;;;;;;5051721;28;20469;-42
2022/10/02 09:15:42;;;;;;;17.00;7.67;;;;;;;;;;5042091;28;20388;-42
2022/10/02 09:18:14;;;;;;;14.73;7.13;;;;;;;;;;5039571;28;20410;-43
2022/10/02 09:20:46;;;;;;;16.37;7.37;;;;;;;;;;5037016;28;20399;-44
2022/10/02 09:23:18;;;;;;;13.50;7.27;;;;;;;;;;5031893;28;20486;-43
2022/10/02 09:25:54;;;;;;;12.83;7.77;;;;;;;;;;5031653;28;20409;-42
2022/10/02 09:28:38;;;;;;;13.00;8.93;;;;;;;;;;5031838;28;20396;-43
2022/10/02 09:31:22;;;;;;;12.40;7.30;;;;;;;;;;5031811;28;20489;-45
2022/10/02 09:34:07;;;;;;;15.60;7.73;;;;;;;;;;5031111;28;20391;-45
2022/10/02 09:36:39;;;;;;;11.90;7.20;;;;;;;;;;5031892;28;20365;-43
2022/10/02 09:39:16;;;;;;;14.67;6.70;;;;;;;;;;5031450;28;20483;-45
2022/10/02 09:41:43;;;;;;;16.63;8.70;;;;;;;;;;5031945;28;20758;-43
2022/10/02 09:44:18;;;;;;;13.73;7.27;;;;;;;;;;5030938;28;20451;-43
2022/10/02 09:47:09;;;;;;;16.90;7.40;;;;;;;;;;5031650;28;20393;-43
2022/10/02 09:49:41;;;;;;;21.60;7.90;;;;;;;;;;5031475;28;20498;-43
2022/10/02 09:52:07;;;;;;;11.60;7.33;;;;;;;;;;5031687;28;20559;-42
2022/10/02 09:54:52;;;;;;;11.20;8.30;;;;;;;;;;5030988;28;20475;-42
2022/10/02 09:57:40;;;;;;;13.87;7.50;;;;;;;;;;5031604;28;20421;-42
2022/10/02 10:00:18;;;;;;;16.60;7.77;;;;;;;;;;5031513;28;20868;-42
2022/10/02 10:02:59;;;;;;;11.90;7.83;;;;;;;;;;5031546;28;20394;-43
2022/10/02 10:05:38;;;;;;;22.27;9.37;;;;;;;;;;5030948;28;20743;-44
2022/10/02 10:08:09;;;;;;;11.37;8.43;;;;;;;;;;5031304;28;20385;-43
2022/10/02 10:10:54;;;;;;;18.03;9.40;;;;;;;;;;5031541;28;20898;-43
2022/10/02 10:13:37;;;;;;;18.57;8.67;;;;;;;;;;5031118;28;20933;-43
2022/10/02 10:16:22;;;;;;;16.00;8.50;;;;;;;;;;5031129;28;20406;-44
2022/10/02 10:19:01;;;;;;;16.47;8.40;;;;;;;;;;5031298;28;20421;-43
2022/10/02 10:21:30;;;;;;;15.13;8.50;;;;;;;;;;5049814;28;20961;-43
2022/10/02 10:24:02;;;;;;;16.47;8.07;;;;;;;;;;5050533;28;20404;-43
2022/10/02 10:26:47;;;;;;;20.17;8.20;;;;;;;;;;5051160;28;20758;-43
2022/10/02 10:29:20;;;;;;;12.97;8.60;;;;;;;;;;5050894;28;21003;-43
2022/10/02 10:32:11;;;;;;;12.17;8.20;;;;;;;;;;5051084;28;20487;-43
2022/10/02 10:34:55;;;;;;;15.50;8.20;;;;;;;;;;5050483;28;20398;-42
2022/10/02 10:40:24;;;;;;;11.03;7.03;;;;;;;;;;5050911;28;20395;-45
2022/10/02 10:43:09;;;;;;;14.90;8.07;;;;;;;;;;5053050;28;20403;-44
2022/10/02 10:45:47;;;;;;;9.40;6.60;;;;;;;;;;5053726;28;20772;-42
2022/10/02 10:48:28;;;;;;;8.73;5.87;;;;;;;;;;5054787;28;20447;-43
2022/10/02 10:50:54;;;;;;;7.60;6.00;;;;;;;;;;5054461;28;20416;-42
2022/10/02 10:53:21;;;;;;;9.17;5.70;;;;;;;;;;5054368;28;20820;-42
2022/10/02 10:56:06;;;;;;;12.03;5.23;;;;;;;;;;5054461;28;20401;-46
2022/10/02 10:58:37;;;;;;;11.20;6.47;;;;;;;;;;5052547;28;20411;-42
2022/10/02 11:01:22;;;;;;;15.80;6.27;;;;;;;;;;5044260;28;20495;-44
2022/10/02 11:04:03;;;;;;;12.23;5.40;;;;;;;;;;5034127;28;20438;-42
2022/10/02 11:06:35;;;;;;;9.17;5.43;;;;;;;;;;5034870;28;20436;-49
2022/10/02 11:09:03;;;;;;;12.43;6.23;;;;;;;;;;5034286;28;20808;-49
2022/10/02 11:11:44;;;;;;;11.53;6.53;;;;;;;;;;5034554;28;20413;-45
2022/10/02 11:14:16;;;;;;;7.30;4.73;;;;;;;;;;5033738;28;20964;-45
2022/10/02 11:16:42;;;;;;;11.90;5.57;;;;;;;;;;5034022;28;20774;-45
2022/10/02 11:19:08;;;;;;;12.80;4.07;;;;;;;;;;5034019;28;20433;-46
2022/10/02 11:21:46;;;;;;;7.00;3.73;;;;;;;;;;5034197;28;20445;-45
2022/10/02 11:24:12;;;;;;;4.30;3.77;;;;;;;;;;5033825;28;20883;-45
2022/10/02 11:26:46;;;;;;;11.13;4.10;;;;;;;;;;5033754;28;20417;-44
2022/10/02 11:29:18;;;;;;;6.23;4.23;;;;;;;;;;5033604;28;20408;-44
2022/10/02 11:31:52;;;;;;;8.57;3.60;;;;;;;;;;5033853;28;20455;-45
2022/10/02 11:34:39;;;;;;;10.87;3.73;;;;;;;;;;5033455;28;20410;-44
2022/10/02 11:37:23;;;;;;;6.97;4.07;;;;;;;;;;5033826;28;20414;-44
2022/10/02 11:40:08;;;;;;;7.20;3.90;;;;;;;;;;5033288;28;20402;-45
2022/10/02 11:42:53;;;;;;;8.87;4.80;;;;;;;;;;5033929;28;20427;-44
2022/10/02 11:45:42;;;;;;;6.10;3.30;;;;;;;;;;5033044;28;20405;-44
2022/10/02 11:48:33;;;;;;;7.47;3.87;;;;;;;;;;5013356;28;20460;-44
2022/10/02 11:51:11;;;;;;;5.57;4.13;;;;;;;;;;5032876;28;20401;-45
2022/10/02 11:53:56;;;;;;;6.97;3.97;;;;;;;;;;5031105;28;20830;-44
2022/10/02 11:56:34;;;;;;;8.43;3.00;;;;;;;;;;5033021;28;20889;-45
2022/10/02 11:59:18;;;;;;;6.13;2.67;;;;;;;;;;5032913;28;20446;-44
2022/10/02 12:01:51;;;;;;;7.17;3.20;;;;;;;;;;5033319;28;20409;-44
2022/10/02 12:04:26;;;;;;;8.27;3.57;;;;;;;;;;5032704;28;20971;-45
2022/10/02 12:07:07;;;;;;;5.30;3.17;;;;;;;;;;5032805;28;20400;-44
2022/10/02 12:09:55;;;;;;;14.20;4.17;;;;;;;;;;5033155;28;20375;-44
2022/10/02 12:12:31;;;;;;;13.20;3.00;;;;;;;;;;5033256;28;20469;-45
2022/10/02 12:15:16;;;;;;;7.20;2.83;;;;;;;;;;5032690;28;20397;-44
2022/10/02 12:17:54;;;;;;;4.33;2.47;;;;;;;;;;5033172;28;20513;-45
2022/10/02 12:29:14;;;;;;;5.17;2.80;;;;;;;;;;5032274;28;20409;-45
2022/10/02 12:32:06;;;;;;;6.77;2.60;;;;;;;;;;5032773;28;20495;-44
2022/10/02 12:34:39;;;;;;;9.63;2.80;;;;;;;;;;5046789;28;20417;-44
2022/10/02 12:37:12;;;;;;;7.60;2.50;;;;;;;;;;5052470;28;20417;-45
2022/10/02 12:40:13;;;;;;;4.73;2.83;;;;;;;;;;5052314;28;20396;-44
2022/10/02 12:42:54;;;;;;;12.57;3.07;;;;;;;;;;5050063;28;20417;-45
2022/10/02 12:45:20;;;;;;;17.90;3.77;;;;;;;;;;5051853;28;20466;-44
2022/10/02 12:48:05;;;;;;;9.23;3.40;;;;;;;;;;5052503;28;20393;-44
2022/10/02 12:50:51;;;;;;;5.37;2.80;;;;;;;;;;5063877;28;20412;-44
2022/10/02 12:53:43;;;;;;;5.70;3.50;;;;;;;;;;5052869;28;20461;-45
2022/10/02 12:56:17;;;;;;;7.23;4.33;;;;;;;;;;5032084;28;20494;-44
2022/10/02 12:58:56;;;;;;;11.33;3.60;;;;;;;;;;5044226;28;20471;-46
2022/10/02 13:01:37;;;;;;;7.77;3.53;;;;;;;;;;5046228;28;20392;-46
2022/10/02 13:04:18;;;;;;;6.13;2.83;;;;;;;;;;5047021;28;20466;-48
2022/10/02 13:06:59;;;;;;;7.43;3.27;;;;;;;;;;5051778;28;20787;-46
2022/10/02 13:09:25;;;;;;;8.10;2.50;;;;;;;;;;5041394;28;20486;-48
2022/10/02 13:11:59;;;;;;;10.70;3.03;;;;;;;;;;5041456;28;20464;-49
2022/10/02 13:14:34;;;;;;;9.60;3.23;;;;;;;;;;5051501;28;20409;-49
2022/10/02 13:17:19;;;;;;;9.83;2.23;;;;;;;;;;5039804;28;20884;-44
2022/10/02 13:19:46;;;;;;;5.33;2.83;;;;;;;;;;5039843;28;20415;-42
2022/10/02 13:22:19;;;;;;;7.73;2.70;;;;;;;;;;5051917;28;20777;-42
2022/10/02 13:24:44;;;;;;;7.17;2.80;;;;;;;;;;5051308;28;20377;-42
2022/10/02 13:27:22;;;;;;;12.20;2.70;;;;;;;;;;5047914;28;20447;-44
2022/10/02 13:30:04;;;;;;;7.13;2.63;;;;;;;;;;5042533;28;20384;-44
2022/10/02 13:32:40;;;;;;;8.40;3.40;;;;;;;;;;5051516;28;20464;-44
2022/10/02 13:35:06;;;;;;;11.57;2.57;;;;;;;;;;5051560;28;20804;-42
2022/10/02 13:37:51;;;;;;;9.37;2.67;;;;;;;;;;5051163;28;20427;-42
2022/10/02 13:40:20;;;;;;;5.53;2.37;;;;;;;;;;5051454;28;20462;-42
2022/10/02 13:42:46;;;;;;;9.90;3.10;;;;;;;;;;5051260;28;20412;-42
2022/10/02 13:45:22;;;;;;;10.50;2.80;;;;;;;;;;5051204;28;20381;-42
2022/10/02 13:47:51;;;;;;;5.83;2.43;;;;;;;;;;5051446;28;20390;-46
2022/10/02 13:50:37;;;;;;;9.57;2.53;;;;;;;;;;5051465;28;20426;-43
2022/10/02 13:53:26;;;;;;;19.60;2.70;;;;;;;;;;5039800;28;20451;-42
2022/10/02 13:56:03;;;;;;;9.43;2.53;;;;;;;;;;5039392;28;20516;-45
2022/10/02 13:58:42;;;;;;;6.03;2.73;;;;;;;;;;5052672;28;20415;-44
2022/10/02 14:01:08;;;;;;;9.40;2.03;;;;;;;;;;5051415;28;20393;-42
2022/10/02 14:03:49;;;;;;;10.73;2.70;;;;;;;;;;5051422;28;20398;-42
2022/10/02 14:06:19;;;;;;;5.33;1.80;;;;;;;;;;5057668;28;20406;-43
2022/10/02 14:08:45;;;;;;;6.87;2.40;;;;;;;;;;5071049;28;20436;-45
2022/10/02 14:11:14;;;;;;;6.80;2.00;;;;;;;;;;5071433;28;20419;-43
2022/10/02 14:13:41;;;;;;;7.27;2.53;;;;;;;;;;5071341;28;20941;-42
2022/10/02 14:16:09;;;;;;;9.87;2.20;;;;;;;;;;5055185;28;20950;-43
2022/10/02 14:18:38;;;;;;;4.80;2.00;;;;;;;;;;5045836;28;20951;-43
2022/10/02 14:21:07;;;;;;;10.20;3.50;;;;;;;;;;5051783;28;20421;-43
2022/10/02 14:23:46;;;;;;;10.10;4.17;;;;;;;;;;5034797;28;20408;-42
2022/10/02 14:26:21;;;;;;;11.53;4.30;;;;;;;;;;5033856;28;20407;-43
2022/10/02 14:29:09;;;;;;;5.70;2.20;;;;;;;;;;5034465;28;20431;-44
2022/10/02 14:31:44;;;;;;;7.87;2.80;;;;;;;;;;5035126;28;20413;-43
2022/10/02 14:34:28;;;;;;;7.40;3.53;;;;;;;;;;5034649;28;20788;-43
2022/10/02 14:37:15;;;;;;;4.97;3.07;;;;;;;;;;5034775;28;20395;-42
2022/10/02 14:39:44;;;;;;;8.30;2.10;;;;;;;;;;5054414;28;20398;-43
2022/10/02 14:42:13;;;;;;;5.83;2.70;;;;;;;;;;5054878;28;20972;-42
2022/10/02 14:44:55;;;;;;;10.90;2.70;;;;;;;;;;5054240;28;20452;-43
2022/10/02 14:47:42;;;;;;;6.80;2.07;;;;;;;;;;5054498;28;20432;-42
2022/10/02 14:50:19;;;;;;;9.13;2.17;;;;;;;;;;5054506;28;20752;-43
2022/10/02 14:52:52;;;;;;;8.33;2.03;;;;;;;;;;5054406;28;20448;-43
2022/10/02 14:55:26;;;;;;;8.10;3.30;;;;;;;;;;5054263;28;20481;-42
2022/10/02 14:58:01;;;;;;;10.03;2.00;;;;;;;;;;5054276;28;20443;-43
2022/10/02 15:00:33;;;;;;;13.60;2.70;;;;;;;;;;5054232;28;20408;-43
2022/10/02 15:03:19;;;;;;;6.70;2.23;;;;;;;;;;5054168;28;20929;-45
2022/10/02 15:05:54;;;;;;;8.87;2.57;;;;;;;;;;5053834;28;20398;-42
2022/10/02 15:08:24;;;;;;;11.50;2.63;;;;;;;;;;5054212;28;20491;-43
2022/10/02 15:10:50;;;;;;;18.50;3.40;;;;;;;;;;5053863;28;20799;-42
2022/10/02 15:13:27;;;;;;;8.90;2.57;;;;;;;;;;5054116;28;20436;-42
2022/10/02 15:19:03;;;;;;;7.80;2.07;;;;;;;;;;5053912;28;20419;-46
2022/10/02 15:21:31;;;;;;;6.20;2.33;;;;;;;;;;5054200;28;20460;-42
2022/10/02 15:23:58;;;;;;;11.27;2.27;;;;;;;;;;5054040;28;20387;-43
2022/10/02 15:26:39;;;;;;;4.60;2.33;;;;;;;;;;5053787;28;20374;-42
2022/10/02 15:29:08;;;;;;;6.07;1.90;;;;;;;;;;5053298;28;20431;-42
2022/10/02 15:31:38;;;;;;;8.87;2.93;;;;;;;;;;5054225;28;20375;-42
2022/10/02 15:34:13;;;;;;;7.23;2.40;;;;;;;;;;5053522;28;20403;-48